Time;durP1;ratioP1;P1;durP2;ratioP2;P2;SDS_P1;SDS_P2;PMS_P1;PMS_P2;Temp;Humidity;BMP_temperature;BMP_pressure;BME280_temperature;BME280_humidity;BME280_pressure;Samples;Min_cycle;Max_cycle;Signal;HPM_P1;HPM_P2
2023/01/17 00:01:19;;;;;;;5.50;4.65;;;4.00;99.90;;;;;;5051546;28;20049;-67
2023/01/17 00:12:04;;;;;;;7.50;4.55;;;3.90;99.90;;;;;;5051689;28;20139;-65
2023/01/17 00:14:31;;;;;;;8.52;4.35;;;3.90;99.90;;;;;;5050418;28;20048;-68
2023/01/17 00:17:00;;;;;;;6.85;4.70;;;3.90;99.90;;;;;;5069379;28;20056;-65
2023/01/17 01:34:36;;;;;;;6.03;4.80;;;4.00;99.90;;;;;;5061864;28;20056;-66
2023/01/17 01:37:03;;;;;;;8.27;4.65;;;3.90;99.90;;;;;;5066805;28;20048;-66
2023/01/17 01:39:31;;;;;;;6.10;4.50;;;3.90;99.90;;;;;;5065406;28;20051;-66
2023/01/17 01:41:59;;;;;;;8.40;5.05;;;3.80;99.90;;;;;;5047188;28;20056;-65
2023/01/17 01:44:44;;;;;;;6.68;4.80;;;3.80;99.90;;;;;;5050495;28;20543;-65
2023/01/17 01:47:21;;;;;;;7.70;4.50;;;3.80;99.90;;;;;;5055884;28;20048;-65
2023/01/17 01:49:50;;;;;;;8.40;4.30;;;3.70;99.90;;;;;;5065380;28;20057;-65
2023/01/17 01:52:19;;;;;;;7.10;4.65;;;3.70;99.90;;;;;;5065605;28;20059;-66
2023/01/17 01:54:51;;;;;;;7.65;4.45;;;3.70;99.90;;;;;;5077339;28;20504;-65
2023/01/17 01:57:26;;;;;;;6.38;4.30;;;3.70;99.90;;;;;;5058680;28;20040;-65
2023/01/17 02:00:00;;;;;;;8.18;4.85;;;3.70;99.90;;;;;;5062990;28;20599;-66
2023/01/17 02:02:27;;;;;;;;;;;3.60;99.90;;;;;;5057594;28;20056;-65
2023/01/17 02:04:54;;;;;;;7.00;4.70;;;3.60;99.90;;;;;;5064153;28;20308;-66
2023/01/17 02:07:28;;;;;;;4.97;4.13;;;3.50;99.90;;;;;;5064404;28;20491;-66
2023/01/17 02:09:55;;;;;;;8.32;5.43;;;3.50;99.90;;;;;;5065083;28;20071;-65
2023/01/17 02:12:24;;;;;;;8.25;4.65;;;3.50;99.90;;;;;;5049490;28;20074;-66
2023/01/17 02:14:51;;;;;;;8.80;4.95;;;3.50;99.90;;;;;;5065067;28;20075;-65
2023/01/17 02:17:38;;;;;;;6.63;5.60;;;3.50;99.90;;;;;;5066665;28;20094;-66
2023/01/17 02:20:47;;;;;;;11.27;4.38;;;3.40;99.90;;;;;;5067904;28;20129;-66
2023/01/17 02:24:16;;;;;;;6.10;4.70;;;3.40;99.90;;;;;;5039813;28;20052;-65
2023/01/17 02:27:07;;;;;;;7.35;4.55;;;3.30;99.90;;;;;;5056613;28;20041;-67
2023/01/17 02:30:25;;;;;;;5.63;4.45;;;3.20;99.90;;;;;;5054750;28;20055;-66
2023/01/17 02:33:04;;;;;;;5.38;4.32;;;3.20;99.90;;;;;;5067048;28;20491;-66
2023/01/17 02:35:40;;;;;;;8.00;4.40;;;3.30;99.90;;;;;;5059559;28;20048;-66
2023/01/17 02:38:38;;;;;;;6.38;4.22;;;3.20;99.90;;;;;;5049705;28;20139;-66
2023/01/17 02:41:11;;;;;;;7.53;5.07;;;3.20;99.90;;;;;;5067336;28;20581;-66
2023/01/17 02:43:40;;;;;;;9.95;5.47;;;3.20;99.90;;;;;;5066610;28;20140;-67
2023/01/17 02:46:08;;;;;;;7.18;5.38;;;3.10;99.90;;;;;;5069548;28;20064;-66
2023/01/17 02:48:37;;;;;;;8.25;5.78;;;3.10;99.90;;;;;;5083316;28;20167;-65
2023/01/17 02:51:43;;;;;;;8.27;6.43;;;3.00;99.90;;;;;;5062338;28;20041;-66
2023/01/17 02:54:33;;;;;;;7.55;6.70;;;3.00;99.90;;;;;;5066611;28;20458;-65
2023/01/17 02:57:27;;;;;;;10.88;7.30;;;3.00;99.90;;;;;;5057406;28;20056;-66
2023/01/17 03:00:01;;;;;;;13.02;8.77;;;2.90;99.90;;;;;;5054381;28;20575;-64
2023/01/17 03:02:43;;;;;;;14.98;8.70;;;2.90;99.90;;;;;;5061566;28;20413;-65
2023/01/17 03:05:16;;;;;;;12.82;9.48;;;2.90;99.90;;;;;;5074864;28;20051;-65
2023/01/17 03:07:45;;;;;;;14.80;9.80;;;2.80;99.90;;;;;;5092824;28;20078;-66
2023/01/17 03:10:16;;;;;;;15.65;9.88;;;2.80;99.90;;;;;;5074756;28;20060;-66
2023/01/17 03:12:44;;;;;;;17.55;10.50;;;2.80;99.90;;;;;;5065647;28;20048;-67
2023/01/17 03:15:13;;;;;;;13.23;9.50;;;2.70;99.90;;;;;;5074226;28;20044;-67
2023/01/17 03:17:47;;;;;;;12.48;8.52;;;2.70;99.90;;;;;;5071618;28;20048;-66
2023/01/17 03:20:15;;;;;;;12.02;7.63;;;2.70;99.90;;;;;;5065007;28;20067;-68
2023/01/17 03:22:43;;;;;;;14.15;7.95;;;2.70;99.90;;;;;;5068618;28;20071;-67
2023/01/17 03:25:10;;;;;;;14.38;6.95;;;2.70;99.90;;;;;;5061755;28;20087;-67
2023/01/17 03:27:37;;;;;;;9.32;6.63;;;2.70;99.90;;;;;;5074824;28;20052;-67
2023/01/17 03:30:06;;;;;;;14.77;6.93;;;2.70;99.90;;;;;;5070118;28;20052;-67
2023/01/17 03:32:34;;;;;;;10.25;6.70;;;2.70;99.90;;;;;;5062556;28;20036;-68
2023/01/17 03:35:02;;;;;;;10.05;7.30;;;2.70;99.90;;;;;;5074415;28;20354;-67
2023/01/17 03:37:30;;;;;;;15.15;7.53;;;2.70;99.90;;;;;;5089454;28;20048;-67
2023/01/17 03:39:58;;;;;;;13.75;7.30;;;2.70;99.90;;;;;;5079214;28;20535;-70
2023/01/17 03:42:25;;;;;;;10.95;6.82;;;2.70;99.90;;;;;;5063939;28;20041;-70
2023/01/17 03:44:52;;;;;;;12.48;7.25;;;2.70;99.90;;;;;;5068018;28;20087;-70
2023/01/17 03:47:19;;;;;;;13.90;7.55;;;2.70;99.90;;;;;;5065869;28;20144;-70
2023/01/17 03:49:47;;;;;;;10.60;6.82;;;2.70;99.90;;;;;;5066081;28;20049;-71
2023/01/17 03:52:15;;;;;;;12.05;7.50;;;2.70;99.90;;;;;;5074419;28;20051;-71
2023/01/17 03:54:43;;;;;;;18.27;8.15;;;2.80;99.90;;;;;;5083483;28;20587;-70
2023/01/17 03:57:12;;;;;;;11.75;7.35;;;2.80;99.90;;;;;;5058757;28;20064;-70
2023/01/17 03:59:39;;;;;;;13.60;7.82;;;2.90;99.90;;;;;;5070560;28;20063;-70
2023/01/17 04:02:06;;;;;;;11.98;7.18;;;2.90;99.90;;;;;;5082506;28;20384;-70
2023/01/17 04:04:34;;;;;;;13.98;7.28;;;2.90;99.90;;;;;;5092697;28;20056;-71
2023/01/17 04:07:01;;;;;;;11.15;7.35;;;3.00;99.90;;;;;;5085479;28;20570;-72
2023/01/17 04:09:32;;;;;;;14.02;7.25;;;3.00;99.90;;;;;;5070805;28;20044;-70
2023/01/17 04:12:05;;;;;;;13.02;8.40;;;3.00;99.90;;;;;;5059565;28;20531;-70
2023/01/17 04:14:32;;;;;;;11.70;6.88;;;3.00;99.90;;;;;;5086347;28;20059;-71
2023/01/17 04:17:00;;;;;;;13.23;7.65;;;3.10;99.90;;;;;;5079824;28;20055;-71
2023/01/17 04:19:27;;;;;;;10.07;6.20;;;3.10;99.90;;;;;;5069531;28;20071;-73
2023/01/17 04:21:54;;;;;;;14.98;8.00;;;3.10;99.90;;;;;;5057634;28;20049;-70
2023/01/17 04:24:22;;;;;;;14.52;8.35;;;3.10;99.90;;;;;;5075119;28;20182;-71
2023/01/17 04:26:52;;;;;;;20.95;8.60;;;3.10;99.90;;;;;;5066205;28;20040;-66
2023/01/17 04:29:19;;;;;;;17.58;8.98;;;3.10;99.90;;;;;;5072005;28;20147;-67
2023/01/17 04:31:47;;;;;;;19.15;8.52;;;3.10;99.90;;;;;;5053101;28;20053;-67
2023/01/17 04:34:14;;;;;;;13.88;7.57;;;3.10;99.90;;;;;;5052088;28;20045;-68
2023/01/17 04:36:44;;;;;;;9.77;6.25;;;3.10;99.90;;;;;;5065405;28;20965;-67
2023/01/17 04:39:11;;;;;;;11.60;6.35;;;3.10;99.90;;;;;;5066540;28;20048;-67
2023/01/17 04:41:39;;;;;;;11.70;6.07;;;3.10;99.90;;;;;;5065665;28;20429;-66
2023/01/17 04:44:08;;;;;;;12.32;6.80;;;3.10;99.90;;;;;;5061625;28;21041;-72
2023/01/17 04:46:36;;;;;;;16.85;6.45;;;3.00;99.90;;;;;;5066867;28;20044;-72
2023/01/17 04:49:05;;;;;;;10.50;6.82;;;3.00;99.90;;;;;;5067437;28;20083;-72
2023/01/17 04:51:33;;;;;;;9.15;5.75;;;3.10;99.90;;;;;;5062295;28;20340;-72
2023/01/17 04:54:04;;;;;;;8.95;5.05;;;3.00;99.90;;;;;;5068488;28;20052;-76
2023/01/17 04:56:31;;;;;;;5.80;5.05;;;3.00;99.90;;;;;;5065974;28;20058;-73
2023/01/17 04:58:59;;;;;;;9.68;6.32;;;3.00;99.90;;;;;;5065909;28;20146;-74
2023/01/17 05:01:27;;;;;;;8.88;5.78;;;3.00;99.90;;;;;;5069802;28;20060;-73
2023/01/17 05:03:55;;;;;;;9.15;5.57;;;3.00;99.90;;;;;;5055910;28;20068;-73
2023/01/17 05:06:23;;;;;;;9.90;5.82;;;3.00;99.90;;;;;;5054425;28;20036;-73
2023/01/17 05:08:51;;;;;;;8.32;5.45;;;3.00;99.90;;;;;;5061083;28;20071;-74
2023/01/17 05:11:18;;;;;;;8.45;6.10;;;3.00;99.90;;;;;;5062491;28;20102;-73
2023/01/17 05:13:48;;;;;;;11.05;6.63;;;3.00;99.90;;;;;;5060583;28;20045;-73
2023/01/17 05:16:18;;;;;;;9.75;6.20;;;2.90;99.90;;;;;;5064769;28;20079;-73
2023/01/17 05:18:51;;;;;;;7.30;6.10;;;2.90;99.90;;;;;;5067033;28;20580;-73
2023/01/17 05:21:18;;;;;;;10.02;6.88;;;2.90;99.90;;;;;;5057436;28;20059;-69
2023/01/17 05:23:46;;;;;;;10.80;7.00;;;2.90;99.90;;;;;;5047010;28;20053;-68
2023/01/17 05:26:16;;;;;;;9.60;6.78;;;2.90;99.90;;;;;;5047084;28;20049;-68
2023/01/17 05:28:43;;;;;;;8.75;6.47;;;2.90;99.90;;;;;;5048513;28;20049;-69
2023/01/17 05:31:11;;;;;;;10.68;7.43;;;2.80;99.90;;;;;;5059172;28;20052;-69
2023/01/17 05:33:38;;;;;;;10.55;7.97;;;2.80;99.90;;;;;;5063748;28;20056;-70
2023/01/17 05:36:08;;;;;;;12.73;8.50;;;2.80;99.90;;;;;;5059798;28;20139;-69
2023/01/17 05:38:36;;;;;;;13.43;9.95;;;2.70;99.90;;;;;;5066440;28;20052;-68
2023/01/17 05:41:04;;;;;;;14.75;10.00;;;2.70;99.90;;;;;;5068031;28;20049;-69
2023/01/17 05:43:31;;;;;;;15.23;10.02;;;2.70;99.90;;;;;;5069289;28;20052;-69
2023/01/17 05:45:59;;;;;;;14.77;10.63;;;2.70;99.90;;;;;;5060354;28;20106;-69
2023/01/17 05:48:26;;;;;;;15.55;10.02;;;2.70;99.90;;;;;;5082089;28;20476;-68
2023/01/17 05:50:53;;;;;;;17.05;10.45;;;2.70;99.90;;;;;;5063401;28;20045;-68
2023/01/17 05:53:22;;;;;;;16.15;10.57;;;2.70;99.90;;;;;;5048945;28;20171;-68
2023/01/17 05:55:49;;;;;;;17.95;11.95;;;2.70;99.90;;;;;;5056463;28;20071;-68
2023/01/17 05:58:19;;;;;;;17.90;11.88;;;2.70;99.90;;;;;;5062454;28;20516;-69
2023/01/17 06:00:48;;;;;;;21.73;13.32;;;2.70;99.90;;;;;;5063406;28;20052;-68
2023/01/17 06:03:16;;;;;;;23.05;13.98;;;2.70;99.90;;;;;;5062178;28;20143;-68
2023/01/17 06:05:44;;;;;;;22.50;14.10;;;2.60;99.90;;;;;;5066930;28;20052;-68
2023/01/17 06:08:11;;;;;;;23.92;14.52;;;2.60;99.90;;;;;;5062087;28;20048;-69
2023/01/17 06:10:40;;;;;;;23.83;13.73;;;2.50;99.90;;;;;;5068313;28;20490;-67
2023/01/17 06:13:11;;;;;;;24.38;14.80;;;2.40;99.90;;;;;;5067159;28;20155;-69
2023/01/17 06:15:39;;;;;;;23.63;14.57;;;2.40;99.90;;;;;;5066918;28;20049;-73
2023/01/17 06:18:10;;;;;;;24.75;14.65;;;2.50;99.90;;;;;;5064211;28;20535;-73
2023/01/17 06:20:42;;;;;;;23.25;14.13;;;2.50;99.90;;;;;;5067578;28;20416;-72
2023/01/17 06:26:07;;;;;;;22.25;14.52;;;2.60;99.90;;;;;;5060767;28;20049;-74
2023/01/17 06:28:35;;;;;;;22.10;14.55;;;2.50;99.90;;;;;;5065400;28;20052;-75
2023/01/17 06:31:07;;;;;;;22.25;14.38;;;2.50;99.90;;;;;;5067779;28;20048;-73
2023/01/17 06:33:35;;;;;;;27.90;15.18;;;2.60;99.90;;;;;;5063835;28;20053;-73
2023/01/17 06:36:02;;;;;;;25.77;15.85;;;2.50;99.90;;;;;;5062219;28;20422;-72
2023/01/17 06:38:30;;;;;;;25.42;16.10;;;2.50;99.90;;;;;;5062150;28;20449;-73
2023/01/17 06:40:59;;;;;;;21.23;13.80;;;2.60;99.90;;;;;;5063789;28;20045;-69
2023/01/17 06:43:32;;;;;;;24.38;15.90;;;2.60;99.90;;;;;;5065729;28;20102;-69
2023/01/17 06:46:00;;;;;;;27.48;15.98;;;2.60;99.90;;;;;;5072219;28;20071;-67
2023/01/17 06:48:27;;;;;;;34.60;16.50;;;2.60;99.90;;;;;;5068079;28;20075;-68
2023/01/17 06:50:55;;;;;;;23.42;14.32;;;2.70;99.90;;;;;;5068289;28;20048;-68
2023/01/17 06:53:22;;;;;;;22.33;15.13;;;2.70;99.90;;;;;;5070354;28;20045;-70
2023/01/17 06:55:49;;;;;;;22.52;14.60;;;2.80;99.90;;;;;;5070293;28;20159;-68
2023/01/17 06:58:17;;;;;;;23.35;14.65;;;2.80;99.90;;;;;;5066121;28;20076;-68
2023/01/17 07:00:45;;;;;;;24.42;14.65;;;2.70;99.90;;;;;;5068662;28;20123;-69
2023/01/17 07:03:19;;;;;;;21.75;14.90;;;2.70;99.90;;;;;;5068937;28;20055;-67
2023/01/17 07:05:47;;;;;;;26.33;15.90;;;2.80;99.90;;;;;;5067769;28;20056;-69
2023/01/17 07:08:15;;;;;;;25.10;14.50;;;2.80;99.90;;;;;;5070861;28;20123;-67
2023/01/17 07:10:44;;;;;;;21.88;14.00;;;2.70;99.90;;;;;;5065591;28;20079;-67
2023/01/17 07:13:11;;;;;;;23.55;14.27;;;2.70;99.90;;;;;;5068990;28;20052;-68
2023/01/17 07:15:39;;;;;;;19.33;13.00;;;2.70;99.90;;;;;;5071832;28;20138;-69
2023/01/17 07:18:08;;;;;;;20.50;13.73;;;2.80;99.90;;;;;;5052475;28;20094;-68
2023/01/17 07:20:37;;;;;;;22.60;14.55;;;2.70;99.90;;;;;;5069309;28;20114;-68
2023/01/17 07:23:05;;;;;;;19.38;13.07;;;2.70;99.90;;;;;;5024598;28;20060;-69
2023/01/17 07:25:32;;;;;;;23.35;13.35;;;2.60;99.90;;;;;;5056364;28;20495;-67
2023/01/17 07:28:00;;;;;;;17.88;11.93;;;2.70;99.90;;;;;;5061496;28;20462;-68
2023/01/17 07:30:28;;;;;;;20.13;11.88;;;2.80;99.90;;;;;;5063293;28;20055;-68
2023/01/17 07:32:55;;;;;;;17.58;12.57;;;2.80;99.90;;;;;;5056106;28;20117;-73
2023/01/17 07:35:25;;;;;;;16.25;11.93;;;2.80;99.90;;;;;;5065359;28;20052;-73
2023/01/17 07:37:54;;;;;;;19.27;11.88;;;2.70;99.90;;;;;;5063977;28;20506;-74
2023/01/17 07:40:23;;;;;;;15.90;10.90;;;2.70;99.90;;;;;;5059705;28;20059;-73
2023/01/17 07:42:50;;;;;;;14.57;10.30;;;2.70;99.90;;;;;;5069634;28;20049;-75
2023/01/17 07:45:18;;;;;;;13.05;9.80;;;2.70;99.90;;;;;;5079718;28;20064;-66
2023/01/17 07:47:46;;;;;;;14.80;10.90;;;2.70;99.90;;;;;;5071112;28;20082;-69
2023/01/17 07:50:14;;;;;;;14.68;9.82;;;2.70;99.90;;;;;;5060741;28;20520;-67
2023/01/17 07:52:43;;;;;;;13.48;9.85;;;2.60;99.90;;;;;;5067239;28;20052;-73
2023/01/17 07:55:10;;;;;;;13.00;9.00;;;2.60;99.90;;;;;;5069119;28;20505;-73
2023/01/17 07:57:38;;;;;;;14.18;9.00;;;2.50;99.90;;;;;;5076666;28;20052;-72
2023/01/17 08:00:08;;;;;;;12.10;8.73;;;2.50;99.90;;;;;;5066359;28;20054;-72
2023/01/17 08:02:41;;;;;;;10.45;7.35;;;2.50;99.90;;;;;;5060172;28;20049;-73
2023/01/17 08:05:09;;;;;;;9.48;7.22;;;2.50;99.90;;;;;;5064056;28;20084;-73
2023/01/17 08:07:36;;;;;;;8.30;6.72;;;2.60;99.90;;;;;;5055935;28;20051;-73
2023/01/17 08:10:07;;;;;;;11.52;8.13;;;2.50;99.90;;;;;;5055696;28;20092;-73
2023/01/17 08:12:37;;;;;;;10.10;7.32;;;2.50;99.90;;;;;;5051307;28;20067;-74
2023/01/17 08:15:06;;;;;;;11.02;7.70;;;2.50;99.90;;;;;;5058176;28;20339;-74
2023/01/17 08:17:33;;;;;;;10.25;7.03;;;2.50;99.90;;;;;;5053783;28;20475;-73
2023/01/17 08:20:00;;;;;;;9.82;7.30;;;2.50;99.90;;;;;;5065405;28;20055;-73
2023/01/17 08:22:31;;;;;;;11.45;7.75;;;2.50;99.90;;;;;;5049678;28;20067;-72
2023/01/17 08:24:59;;;;;;;12.88;7.72;;;2.50;99.90;;;;;;5060234;28;20523;-74
2023/01/17 08:27:29;;;;;;;9.70;7.50;;;2.50;99.90;;;;;;5069748;28;20109;-75
2023/01/17 08:29:56;;;;;;;12.23;7.18;;;2.50;99.90;;;;;;5060571;28;20067;-69
2023/01/17 08:32:23;;;;;;;10.02;7.03;;;2.50;99.90;;;;;;5050989;28;20485;-69
2023/01/17 08:34:51;;;;;;;9.88;6.97;;;2.50;99.90;;;;;;5061242;28;20071;-69
2023/01/17 08:37:18;;;;;;;7.75;5.53;;;2.50;99.90;;;;;;5055765;28;20077;-69
2023/01/17 08:39:45;;;;;;;8.38;6.32;;;2.50;99.90;;;;;;5065590;28;20052;-67
2023/01/17 08:42:12;;;;;;;9.45;6.65;;;2.60;99.90;;;;;;5066091;28;20049;-67
2023/01/17 08:44:42;;;;;;;8.25;6.38;;;2.60;99.90;;;;;;5063417;28;20540;-68
2023/01/17 08:47:09;;;;;;;9.52;6.88;;;2.70;99.90;;;;;;5058199;28;20064;-68
2023/01/17 08:49:37;;;;;;;7.97;6.07;;;2.80;99.90;;;;;;5069753;28;20327;-68
2023/01/17 08:52:05;;;;;;;8.57;6.38;;;2.80;99.90;;;;;;5067489;28;20132;-75
2023/01/17 08:54:32;;;;;;;9.10;6.10;;;2.80;99.90;;;;;;5058747;28;20049;-71
2023/01/17 08:56:59;;;;;;;16.02;9.25;;;2.70;99.90;;;;;;5069365;28;20070;-74
2023/01/17 08:59:26;;;;;;;8.88;6.75;;;2.80;99.90;;;;;;5070025;28;20051;-73
2023/01/17 09:01:56;;;;;;;10.05;7.07;;;2.70;99.90;;;;;;5069704;28;20512;-73
2023/01/17 09:04:24;;;;;;;6.78;5.43;;;2.70;99.90;;;;;;5063688;28;20135;-73
2023/01/17 09:06:51;;;;;;;9.13;6.03;;;2.70;99.90;;;;;;5052340;28;20588;-71
2023/01/17 09:09:19;;;;;;;7.95;5.93;;;2.80;99.90;;;;;;5049401;28;20052;-71
2023/01/17 09:11:46;;;;;;;7.05;5.63;;;2.70;99.90;;;;;;5049453;28;20571;-72
2023/01/17 09:14:14;;;;;;;7.90;5.55;;;2.70;99.90;;;;;;5066706;28;20425;-74
2023/01/17 09:16:41;;;;;;;6.82;5.93;;;2.70;99.90;;;;;;5071093;28;20467;-72
2023/01/17 09:19:10;;;;;;;7.00;5.15;;;2.70;99.90;;;;;;5070730;28;20057;-73
2023/01/17 09:21:37;;;;;;;5.95;5.05;;;2.80;99.90;;;;;;5070926;28;20037;-72
2023/01/17 09:24:05;;;;;;;7.65;4.75;;;2.80;99.90;;;;;;5068679;28;20505;-72
2023/01/17 09:26:33;;;;;;;7.60;4.80;;;2.80;99.90;;;;;;5070407;28;20056;-74
2023/01/17 09:29:00;;;;;;;6.55;4.75;;;2.80;99.90;;;;;;5069161;28;20048;-73
2023/01/17 09:31:28;;;;;;;6.25;4.63;;;2.70;99.90;;;;;;5065812;28;20073;-72
2023/01/17 09:33:57;;;;;;;5.10;4.15;;;2.70;99.90;;;;;;5055354;28;20045;-72
2023/01/17 09:36:30;;;;;;;7.82;5.38;;;2.70;99.90;;;;;;5050921;28;20044;-69
2023/01/17 09:38:58;;;;;;;6.43;4.55;;;2.60;99.90;;;;;;5049396;28;20111;-67
2023/01/17 09:41:29;;;;;;;5.05;4.50;;;2.70;99.90;;;;;;5052313;28;20048;-68
2023/01/17 09:44:04;;;;;;;6.97;4.57;;;2.70;99.90;;;;;;5062418;28;20090;-68
2023/01/17 09:46:37;;;;;;;6.30;4.60;;;2.80;99.90;;;;;;5055005;28;20156;-69
2023/01/17 09:49:08;;;;;;;6.03;4.93;;;2.80;99.90;;;;;;5068278;28;20141;-72
2023/01/17 09:51:37;;;;;;;8.05;5.30;;;2.70;99.90;;;;;;5068268;28;20048;-73
2023/01/17 09:54:05;;;;;;;6.10;4.32;;;2.70;99.90;;;;;;5070454;28;20044;-75
2023/01/17 09:56:40;;;;;;;6.80;4.85;;;2.70;99.90;;;;;;5066883;28;20122;-74
2023/01/17 09:59:23;;;;;;;4.18;3.78;;;2.80;99.90;;;;;;5049065;28;20488;-75
2023/01/17 10:02:05;;;;;;;4.95;4.45;;;2.80;99.90;;;;;;5054719;28;20056;-73
2023/01/17 10:04:50;;;;;;;9.40;4.63;;;2.70;99.90;;;;;;5070148;28;20074;-74
2023/01/17 10:07:33;;;;;;;5.78;4.85;;;2.60;99.90;;;;;;5072182;28;20052;-75
2023/01/17 10:10:20;;;;;;;5.60;4.97;;;2.60;99.90;;;;;;5064396;28;20140;-74
2023/01/17 10:12:56;;;;;;;6.28;4.60;;;2.60;99.90;;;;;;5059587;28;20053;-74
2023/01/17 10:15:52;;;;;;;5.95;4.45;;;2.60;99.90;;;;;;5064190;28;20055;-74
2023/01/17 10:18:54;;;;;;;6.25;5.22;;;2.60;99.90;;;;;;5074515;28;20048;-74
2023/01/17 10:21:34;;;;;;;5.28;3.85;;;2.60;99.90;;;;;;5074019;28;20159;-73
2023/01/17 10:24:25;;;;;;;5.32;4.60;;;2.50;99.90;;;;;;5074134;28;20491;-73
2023/01/17 10:26:56;;;;;;;5.50;4.85;;;2.50;99.90;;;;;;5069488;28;20136;-75
2023/01/17 10:29:29;;;;;;;6.60;4.35;;;2.40;99.90;;;;;;5070368;28;20488;-73
2023/01/17 10:31:59;;;;;;;6.63;4.60;;;2.40;99.90;;;;;;5064849;28;20130;-74
2023/01/17 10:34:34;;;;;;;6.38;4.65;;;2.40;99.90;;;;;;5055623;28;20076;-75
2023/01/17 10:37:15;;;;;;;6.70;4.95;;;2.40;99.90;;;;;;5054237;28;20049;-72
2023/01/17 10:39:47;;;;;;;5.72;4.70;;;2.40;99.90;;;;;;5054817;28;20045;-73
2023/01/17 10:42:21;;;;;;;7.43;5.05;;;2.30;99.90;;;;;;5062999;28;20517;-73
2023/01/17 10:44:58;;;;;;;5.43;4.35;;;2.30;99.90;;;;;;5069497;28;20606;-73
2023/01/17 10:47:29;;;;;;;7.78;5.10;;;2.40;99.90;;;;;;5058998;28;20048;-75
2023/01/17 10:49:58;;;;;;;8.13;4.93;;;2.40;99.90;;;;;;5072205;28;20102;-74
2023/01/17 10:52:38;;;;;;;6.85;4.43;;;2.40;99.90;;;;;;5065762;28;20068;-72
2023/01/17 10:55:19;;;;;;;6.55;4.50;;;2.40;99.90;;;;;;5070903;28;20041;-73
2023/01/17 10:57:50;;;;;;;8.40;5.25;;;2.40;99.90;;;;;;5064502;28;20135;-75
2023/01/17 11:00:33;;;;;;;6.40;5.18;;;2.40;99.90;;;;;;5057609;28;20060;-73
2023/01/17 11:03:02;;;;;;;5.90;4.97;;;2.40;99.90;;;;;;5068111;28;20216;-74
2023/01/17 11:05:31;;;;;;;6.60;4.20;;;2.40;99.90;;;;;;5053543;28;20037;-73
2023/01/17 11:08:01;;;;;;;6.72;4.90;;;2.40;99.90;;;;;;5052721;28;20076;-74
2023/01/17 11:10:52;;;;;;;6.30;4.45;;;2.40;99.90;;;;;;5094077;28;20083;-74
2023/01/17 11:13:26;;;;;;;7.13;4.40;;;2.40;99.90;;;;;;5058233;28;20056;-73
2023/01/17 11:15:59;;;;;;;10.68;5.63;;;2.40;99.90;;;;;;5060376;28;20045;-73
2023/01/17 11:18:31;;;;;;;8.73;4.80;;;2.40;99.90;;;;;;5069192;28;20239;-73
2023/01/17 11:21:11;;;;;;;5.82;4.70;;;2.40;99.90;;;;;;5059532;28;20053;-73
2023/01/17 11:23:41;;;;;;;8.55;5.75;;;2.50;99.90;;;;;;5062853;28;20056;-74
2023/01/17 11:26:20;;;;;;;5.53;4.20;;;2.50;99.90;;;;;;5059053;28;20523;-74
2023/01/17 11:28:48;;;;;;;5.72;4.38;;;2.50;99.90;;;;;;5053485;28;20492;-75
2023/01/17 11:31:26;;;;;;;4.82;4.20;;;2.50;99.90;;;;;;5053199;28;20423;-74
2023/01/17 11:34:15;;;;;;;5.68;4.05;;;2.50;99.90;;;;;;5065713;28;20509;-67
2023/01/17 11:36:42;;;;;;;5.88;4.38;;;2.60;99.90;;;;;;5057583;28;20060;-68
2023/01/17 11:39:26;;;;;;;8.05;4.32;;;2.60;99.90;;;;;;5052818;28;20122;-68
2023/01/17 11:41:55;;;;;;;7.35;3.97;;;2.60;99.90;;;;;;5063464;28;20048;-68
2023/01/17 11:44:25;;;;;;;3.53;3.22;;;2.50;99.90;;;;;;5056172;28;20056;-68
2023/01/17 11:47:18;;;;;;;3.97;3.13;;;2.50;99.90;;;;;;5090976;28;20053;-69
2023/01/17 11:49:48;;;;;;;5.40;3.88;;;2.50;99.90;;;;;;5063757;28;20048;-68
2023/01/17 11:52:24;;;;;;;4.32;3.53;;;2.40;99.90;;;;;;5086040;28;20044;-69
2023/01/17 11:54:54;;;;;;;4.72;3.55;;;2.40;99.90;;;;;;5056632;28;20532;-69
2023/01/17 11:57:26;;;;;;;3.78;3.40;;;2.30;99.90;;;;;;5070138;28;20056;-67
2023/01/17 12:00:06;;;;;;;6.70;3.63;;;2.30;99.90;;;;;;5069263;28;20580;-70
2023/01/17 12:03:24;;;;;;;4.45;3.78;;;2.30;99.90;;;;;;5067454;28;20052;-74
2023/01/17 12:05:59;;;;;;;4.32;3.67;;;2.30;99.90;;;;;;5060376;28;20052;-74
2023/01/17 12:08:44;;;;;;;7.13;3.90;;;2.30;99.90;;;;;;5056572;28;20141;-73
2023/01/17 12:11:18;;;;;;;4.15;3.50;;;2.20;99.90;;;;;;5057864;28;20049;-71
2023/01/17 12:14:01;;;;;;;4.38;3.58;;;2.20;99.90;;;;;;5069191;28;20052;-72
2023/01/17 12:16:52;;;;;;;4.07;3.67;;;2.20;99.90;;;;;;5070929;28;20052;-72
2023/01/17 12:19:36;;;;;;;4.60;3.78;;;2.10;99.90;;;;;;5066635;28;20047;-74
2023/01/17 12:22:24;;;;;;;4.57;3.63;;;2.10;99.90;;;;;;5065441;28;20049;-70
2023/01/17 12:25:29;;;;;;;5.85;4.20;;;2.10;99.90;;;;;;5055056;28;20066;-69
2023/01/17 12:28:20;;;;;;;6.25;4.18;;;2.10;99.90;;;;;;5049773;28;20045;-66
2023/01/17 12:31:12;;;;;;;6.50;4.28;;;2.10;99.90;;;;;;5061132;28;20056;-73
2023/01/17 12:33:50;;;;;;;5.28;4.00;;;2.10;99.90;;;;;;5063029;28;20579;-67
2023/01/17 12:36:37;;;;;;;4.97;4.40;;;1.90;99.90;;;;;;5058397;28;20481;-74
2023/01/17 12:39:13;;;;;;;5.22;4.72;;;1.90;99.90;;;;;;5062916;28;20044;-68
2023/01/17 12:42:02;;;;;;;7.82;5.30;;;1.90;99.90;;;;;;5042066;28;20070;-68
2023/01/17 12:44:47;;;;;;;7.00;4.50;;;1.90;99.90;;;;;;5056530;28;20098;-72
2023/01/17 12:47:18;;;;;;;4.72;3.72;;;1.90;99.90;;;;;;5062518;28;20048;-74
2023/01/17 12:49:52;;;;;;;6.35;4.22;;;2.00;99.90;;;;;;5065991;28;20147;-75
2023/01/17 12:52:26;;;;;;;6.07;4.60;;;2.00;99.90;;;;;;5066233;28;20127;-74
2023/01/17 12:54:58;;;;;;;4.60;3.72;;;2.00;99.90;;;;;;5068226;28;20465;-73
2023/01/17 12:57:29;;;;;;;4.20;3.75;;;2.00;99.90;;;;;;5065627;28;20068;-74
2023/01/17 13:00:07;;;;;;;5.43;4.10;;;2.00;99.90;;;;;;5065227;28;20052;-68
2023/01/17 13:02:43;;;;;;;4.45;3.97;;;1.90;99.90;;;;;;5053034;28;20067;-73
2023/01/17 13:05:22;;;;;;;6.50;4.40;;;1.90;99.90;;;;;;5061627;28;20044;-67
2023/01/17 13:07:57;;;;;;;5.68;4.28;;;1.90;99.90;;;;;;5065314;28;20048;-76
2023/01/17 13:10:31;;;;;;;5.00;3.97;;;1.80;99.90;;;;;;5058279;28;20459;-69
2023/01/17 13:13:09;;;;;;;11.32;4.20;;;1.80;99.90;;;;;;5058334;28;20044;-73
2023/01/17 13:15:40;;;;;;;5.28;4.45;;;1.80;99.90;;;;;;5057169;28;20060;-69
2023/01/17 13:18:16;;;;;;;8.10;4.40;;;1.80;99.90;;;;;;5054856;28;20094;-73
2023/01/17 13:21:16;;;;;;;5.90;3.85;;;1.70;99.90;;;;;;5059984;28;20052;-74
2023/01/17 13:24:05;;;;;;;6.88;4.10;;;1.70;99.90;;;;;;5062238;28;20147;-68
2023/01/17 13:26:55;;;;;;;6.70;4.57;;;1.70;99.90;;;;;;5062979;28;20053;-68
2023/01/17 13:29:35;;;;;;;6.03;4.63;;;1.70;99.90;;;;;;5061124;28;20759;-75
2023/01/17 13:32:22;;;;;;;6.95;4.88;;;1.70;99.90;;;;;;5066108;28;20117;-69
2023/01/17 13:35:14;;;;;;;7.53;4.50;;;1.70;99.90;;;;;;5054100;28;20060;-68
2023/01/17 13:38:08;;;;;;;5.55;4.45;;;1.70;99.90;;;;;;5056750;28;20443;-67
2023/01/17 13:40:49;;;;;;;6.55;5.20;;;1.60;99.90;;;;;;5058218;28;20137;-67
2023/01/17 13:43:22;;;;;;;5.28;4.63;;;1.60;99.90;;;;;;5059200;28;20075;-69
2023/01/17 13:45:54;;;;;;;6.35;4.80;;;1.60;99.90;;;;;;5055815;28;20052;-67
2023/01/17 13:48:36;;;;;;;6.13;4.85;;;1.60;99.90;;;;;;5045901;28;20513;-68
2023/01/17 13:51:06;;;;;;;6.15;4.13;;;1.60;99.90;;;;;;5060361;28;20059;-69
2023/01/17 13:53:58;;;;;;;7.10;5.00;;;1.60;99.90;;;;;;5054570;28;20154;-67
2023/01/17 13:56:34;;;;;;;10.43;5.60;;;1.50;99.90;;;;;;5075481;28;20409;-70
2023/01/17 13:59:23;;;;;;;6.35;4.75;;;1.50;99.90;;;;;;5051817;28;20044;-68
2023/01/17 14:01:54;;;;;;;6.47;5.18;;;1.50;99.90;;;;;;5049946;28;20056;-69
2023/01/17 14:04:23;;;;;;;7.63;4.75;;;1.50;99.90;;;;;;5053009;28;20041;-68
2023/01/17 14:07:02;;;;;;;5.25;4.43;;;1.50;99.90;;;;;;5067208;28;20489;-73
2023/01/17 14:09:41;;;;;;;8.32;5.40;;;1.50;99.90;;;;;;5063486;28;20052;-76
2023/01/17 14:12:32;;;;;;;7.60;4.95;;;1.40;99.90;;;;;;5060152;28;20049;-75
2023/01/17 14:15:06;;;;;;;8.45;5.47;;;1.50;99.90;;;;;;5059827;28;20111;-76
2023/01/17 14:17:55;;;;;;;6.22;5.13;;;1.50;99.90;;;;;;5069837;28;20052;-75
2023/01/17 14:20:54;;;;;;;10.38;6.40;;;1.50;99.90;;;;;;5070182;28;20048;-74
2023/01/17 14:23:53;;;;;;;12.05;7.57;;;1.50;99.90;;;;;;5050647;28;20527;-73
2023/01/17 14:26:45;;;;;;;6.85;4.95;;;1.50;99.90;;;;;;5070213;28;20085;-73
2023/01/17 14:29:54;;;;;;;6.68;5.30;;;1.60;99.90;;;;;;5067265;28;20144;-70
2023/01/17 14:32:34;;;;;;;8.98;5.03;;;1.60;99.90;;;;;;5060639;28;20328;-69
2023/01/17 14:35:02;;;;;;;9.35;4.78;;;1.60;99.90;;;;;;5067439;28;20044;-70
2023/01/17 14:37:43;;;;;;;6.28;4.88;;;1.60;99.90;;;;;;5048500;28;20078;-75
2023/01/17 14:40:19;;;;;;;7.10;5.68;;;1.60;99.90;;;;;;5064422;28;20051;-75
2023/01/17 14:42:51;;;;;;;6.07;4.93;;;1.50;99.90;;;;;;5066746;28;20306;-74
2023/01/17 14:45:28;;;;;;;6.07;5.03;;;1.60;99.90;;;;;;5065758;28;20162;-76
2023/01/17 14:47:57;;;;;;;5.60;4.88;;;1.50;99.90;;;;;;5067987;28;20048;-76
2023/01/17 14:50:28;;;;;;;8.25;5.13;;;1.50;99.90;;;;;;5059100;28;20033;-75